< < Back
Terminal Aerodrome Forecast


Current Version              Previous Versions:   1  2  3  4  5  6  7  8  9  

Terminal Aerodrome Forecast

355
FTUS42 KTAE 241720
TAFTLH
TAF
KTLH 241720Z 2418/2518 08007KT P6SM SCT040=

Latest METAR

582
SAUS80 KWBC 242300 CCA
MTRTLH
METAR KTLH 242253Z 05007KT 10SM SCT049 BKN100 33/22 A3009 RMK AO2 SLP187
T03280222


USA.gov is the U.S. government's official web portal to all federal, state and local government web resources and services.